KSUN/SUN METAR and TAF weather

Enter ICAO airport designator
Station Type Date Time Source
KSUN METAR 2020/04/05 04:49 UTC NOAA

KSUN 050449Z 00000KT 1 1/2SM -SN BKN007 OVC010 01/01 A2973


Station Type Date Time Source
KSUN Decoded METAR 2020/04/05 04:49 UTC NOAA

Hailey, Friedman Memorial Airport, ID, United States (KSUN) 43-30N 114-18W
Apr 05, 2020 - 12:49 AM EDT / 2020.04.05 0449 UTC
Wind: Calm:0
Visibility: 1 1/2 mile(s):0
Sky conditions: overcast
Weather: light snow
Temperature: 33 F (1 C)
Dew Point: 33 F (1 C)
Relative Humidity: 100%
Pressure (altimeter): 29.73 in. Hg (1006 hPa)
ob: KSUN 050449Z 00000KT 1 1/2SM -SN BKN007 OVC010 01/01 A2973
cycle: 5

Station Type Date Time Source
KSUN TAF 2020/04/05 06:22 UTC NOAA

TAF KSUN 050520Z 0506/0612 31007KT P6SM -SHSN OVC040
TEMPO 0506/0510 3SM -SN OVC015
FM051800 14008KT P6SM VCSH OVC050
FM060100 VRB05KT P6SM -SHRA OVC030
AMD LTD TO CLD VIS AND WIND TIL 051300

Example: see airport list